sensor_id;sensor_type;location;lat;lon;timestamp;temperature;humidity
20658;DHT22;10488;50.846;4.078;2022-10-26T00:01:31;14.70;99.90
20658;DHT22;10488;50.846;4.078;2022-10-26T00:03:57;14.70;99.90
20658;DHT22;10488;50.846;4.078;2022-10-26T00:06:24;14.70;99.90
20658;DHT22;10488;50.846;4.078;2022-10-26T00:08:51;14.70;99.90
20658;DHT22;10488;50.846;4.078;2022-10-26T00:11:17;14.70;99.90
20658;DHT22;10488;50.846;4.078;2022-10-26T00:13:44;14.70;99.90
20658;DHT22;10488;50.846;4.078;2022-10-26T00:18:39;14.70;99.90
20658;DHT22;10488;50.846;4.078;2022-10-26T00:21:06;14.80;99.90
20658;DHT22;10488;50.846;4.078;2022-10-26T00:23:32;14.80;99.90
20658;DHT22;10488;50.846;4.078;2022-10-26T00:25:59;14.90;99.90
20658;DHT22;10488;50.846;4.078;2022-10-26T00:28:25;14.90;99.90
20658;DHT22;10488;50.846;4.078;2022-10-26T00:30:51;14.80;99.90
20658;DHT22;10488;50.846;4.078;2022-10-26T00:33:17;14.80;99.90
20658;DHT22;10488;50.846;4.078;2022-10-26T00:35:47;14.90;99.90
20658;DHT22;10488;50.846;4.078;2022-10-26T00:38:13;14.90;99.90
20658;DHT22;10488;50.846;4.078;2022-10-26T00:40:39;14.90;99.90
20658;DHT22;10488;50.846;4.078;2022-10-26T00:43:53;15.00;99.90
20658;DHT22;10488;50.846;4.078;2022-10-26T00:45:56;15.00;99.90
20658;DHT22;10488;50.846;4.078;2022-10-26T00:48:26;14.90;99.90
20658;DHT22;10488;50.846;4.078;2022-10-26T00:50:53;15.00;99.90
20658;DHT22;10488;50.846;4.078;2022-10-26T00:53:21;14.90;99.90
20658;DHT22;10488;50.846;4.078;2022-10-26T00:55:49;14.80;99.90
20658;DHT22;10488;50.846;4.078;2022-10-26T00:58:17;14.80;99.90
20658;DHT22;10488;50.846;4.078;2022-10-26T01:00:44;14.80;99.90
20658;DHT22;10488;50.846;4.078;2022-10-26T01:03:10;14.80;99.90
20658;DHT22;10488;50.846;4.078;2022-10-26T01:05:39;14.70;99.90
20658;DHT22;10488;50.846;4.078;2022-10-26T01:08:06;14.70;99.90
20658;DHT22;10488;50.846;4.078;2022-10-26T01:10:34;14.70;99.90
20658;DHT22;10488;50.846;4.078;2022-10-26T01:13:00;14.70;99.90
20658;DHT22;10488;50.846;4.078;2022-10-26T01:15:38;14.70;99.90
20658;DHT22;10488;50.846;4.078;2022-10-26T01:18:34;14.80;99.90
20658;DHT22;10488;50.846;4.078;2022-10-26T01:23:55;14.80;99.90
20658;DHT22;10488;50.846;4.078;2022-10-26T01:32:02;14.90;99.90
20658;DHT22;10488;50.846;4.078;2022-10-26T01:34:34;15.00;99.90
20658;DHT22;10488;50.846;4.078;2022-10-26T01:37:25;15.10;99.90
20658;DHT22;10488;50.846;4.078;2022-10-26T01:40:05;15.20;99.90
20658;DHT22;10488;50.846;4.078;2022-10-26T01:42:33;15.30;99.90
20658;DHT22;10488;50.846;4.078;2022-10-26T01:45:06;15.20;99.90
20658;DHT22;10488;50.846;4.078;2022-10-26T01:47:35;15.20;99.90
20658;DHT22;10488;50.846;4.078;2022-10-26T01:50:03;15.20;99.90
20658;DHT22;10488;50.846;4.078;2022-10-26T01:52:28;15.20;99.90
20658;DHT22;10488;50.846;4.078;2022-10-26T01:55:37;15.30;99.90
20658;DHT22;10488;50.846;4.078;2022-10-26T01:57:50;15.20;99.90
20658;DHT22;10488;50.846;4.078;2022-10-26T02:00:16;15.20;99.90
20658;DHT22;10488;50.846;4.078;2022-10-26T02:05:59;15.20;99.90
20658;DHT22;10488;50.846;4.078;2022-10-26T02:09:02;15.20;99.90
20658;DHT22;10488;50.846;4.078;2022-10-26T02:11:39;15.30;99.90
20658;DHT22;10488;50.846;4.078;2022-10-26T02:16:56;15.30;99.90
20658;DHT22;10488;50.846;4.078;2022-10-26T02:21:56;15.30;99.90
20658;DHT22;10488;50.846;4.078;2022-10-26T02:24:26;15.20;99.90
20658;DHT22;10488;50.846;4.078;2022-10-26T02:26:52;15.30;99.90
20658;DHT22;10488;50.846;4.078;2022-10-26T02:29:21;15.40;99.90
20658;DHT22;10488;50.846;4.078;2022-10-26T02:31:48;15.20;99.90
20658;DHT22;10488;50.846;4.078;2022-10-26T02:34:19;15.10;99.90
20658;DHT22;10488;50.846;4.078;2022-10-26T02:36:47;15.10;99.90
20658;DHT22;10488;50.846;4.078;2022-10-26T02:39:15;15.00;99.90
20658;DHT22;10488;50.846;4.078;2022-10-26T02:41:43;15.00;99.90
20658;DHT22;10488;50.846;4.078;2022-10-26T02:44:18;15.10;99.90
20658;DHT22;10488;50.846;4.078;2022-10-26T02:46:46;15.00;99.90
20658;DHT22;10488;50.846;4.078;2022-10-26T02:49:12;15.10;99.90
20658;DHT22;10488;50.846;4.078;2022-10-26T02:51:45;15.20;99.90
20658;DHT22;10488;50.846;4.078;2022-10-26T02:57:16;15.10;99.90
20658;DHT22;10488;50.846;4.078;2022-10-26T02:59:44;15.20;99.90
20658;DHT22;10488;50.846;4.078;2022-10-26T03:02:13;15.20;99.90
20658;DHT22;10488;50.846;4.078;2022-10-26T03:04:39;15.30;99.90
20658;DHT22;10488;50.846;4.078;2022-10-26T03:07:04;15.20;99.90
20658;DHT22;10488;50.846;4.078;2022-10-26T03:09:30;15.00;99.90
20658;DHT22;10488;50.846;4.078;2022-10-26T03:11:56;14.80;99.90
20658;DHT22;10488;50.846;4.078;2022-10-26T03:14:21;15.00;99.90
20658;DHT22;10488;50.846;4.078;2022-10-26T03:16:47;15.20;99.90
20658;DHT22;10488;50.846;4.078;2022-10-26T03:19:13;15.30;99.90
20658;DHT22;10488;50.846;4.078;2022-10-26T03:21:38;15.30;99.90
20658;DHT22;10488;50.846;4.078;2022-10-26T03:24:07;15.20;99.90
20658;DHT22;10488;50.846;4.078;2022-10-26T03:26:32;15.20;99.90
20658;DHT22;10488;50.846;4.078;2022-10-26T03:28:58;15.30;99.90
20658;DHT22;10488;50.846;4.078;2022-10-26T03:31:25;15.50;99.90
20658;DHT22;10488;50.846;4.078;2022-10-26T03:33:50;15.50;99.90
20658;DHT22;10488;50.846;4.078;2022-10-26T03:36:16;15.60;99.90
20658;DHT22;10488;50.846;4.078;2022-10-26T03:38:41;15.50;99.90
20658;DHT22;10488;50.846;4.078;2022-10-26T03:41:07;15.50;99.90
20658;DHT22;10488;50.846;4.078;2022-10-26T03:43:33;15.50;99.90
20658;DHT22;10488;50.846;4.078;2022-10-26T03:45:58;15.50;99.90
20658;DHT22;10488;50.846;4.078;2022-10-26T03:48:24;15.40;99.90
20658;DHT22;10488;50.846;4.078;2022-10-26T03:50:50;15.30;99.90
20658;DHT22;10488;50.846;4.078;2022-10-26T03:53:15;15.50;99.90
20658;DHT22;10488;50.846;4.078;2022-10-26T03:55:44;15.40;99.90
20658;DHT22;10488;50.846;4.078;2022-10-26T03:58:10;15.40;99.90
20658;DHT22;10488;50.846;4.078;2022-10-26T04:00:35;15.60;99.90
20658;DHT22;10488;50.846;4.078;2022-10-26T04:03:01;15.60;99.90
20658;DHT22;10488;50.846;4.078;2022-10-26T04:05:28;15.50;99.90
20658;DHT22;10488;50.846;4.078;2022-10-26T04:07:55;15.50;99.90
20658;DHT22;10488;50.846;4.078;2022-10-26T04:10:22;15.50;99.90
20658;DHT22;10488;50.846;4.078;2022-10-26T04:12:49;15.50;99.90
20658;DHT22;10488;50.846;4.078;2022-10-26T04:15:15;15.50;99.90
20658;DHT22;10488;50.846;4.078;2022-10-26T04:17:41;15.60;99.90
20658;DHT22;10488;50.846;4.078;2022-10-26T04:20:07;15.70;99.90
20658;DHT22;10488;50.846;4.078;2022-10-26T04:22:33;15.70;99.90
20658;DHT22;10488;50.846;4.078;2022-10-26T04:24:59;15.80;99.90
20658;DHT22;10488;50.846;4.078;2022-10-26T04:27:25;15.70;99.90
20658;DHT22;10488;50.846;4.078;2022-10-26T04:29:50;15.60;99.90
20658;DHT22;10488;50.846;4.078;2022-10-26T04:32:16;15.60;99.90
20658;DHT22;10488;50.846;4.078;2022-10-26T04:34:41;15.70;99.90
20658;DHT22;10488;50.846;4.078;2022-10-26T04:37:07;15.70;99.90
20658;DHT22;10488;50.846;4.078;2022-10-26T04:39:33;15.70;99.90
20658;DHT22;10488;50.846;4.078;2022-10-26T04:41:58;15.70;99.90
20658;DHT22;10488;50.846;4.078;2022-10-26T04:44:24;15.80;99.90
20658;DHT22;10488;50.846;4.078;2022-10-26T04:46:50;15.80;99.90
20658;DHT22;10488;50.846;4.078;2022-10-26T04:49:15;15.80;99.90
20658;DHT22;10488;50.846;4.078;2022-10-26T04:51:41;15.80;99.90
20658;DHT22;10488;50.846;4.078;2022-10-26T04:54:06;15.80;99.90
20658;DHT22;10488;50.846;4.078;2022-10-26T04:56:32;15.90;99.90
20658;DHT22;10488;50.846;4.078;2022-10-26T04:58:58;15.90;99.90
20658;DHT22;10488;50.846;4.078;2022-10-26T05:01:24;15.90;99.90
20658;DHT22;10488;50.846;4.078;2022-10-26T05:03:50;16.00;99.90
20658;DHT22;10488;50.846;4.078;2022-10-26T05:06:20;16.00;99.90
20658;DHT22;10488;50.846;4.078;2022-10-26T05:08:46;16.10;99.90
20658;DHT22;10488;50.846;4.078;2022-10-26T05:11:12;16.00;99.90
20658;DHT22;10488;50.846;4.078;2022-10-26T05:13:38;16.00;99.90
20658;DHT22;10488;50.846;4.078;2022-10-26T05:16:04;16.10;99.90
20658;DHT22;10488;50.846;4.078;2022-10-26T05:18:29;16.00;99.90
20658;DHT22;10488;50.846;4.078;2022-10-26T05:20:55;15.90;99.90
20658;DHT22;10488;50.846;4.078;2022-10-26T05:23:21;15.90;99.90
20658;DHT22;10488;50.846;4.078;2022-10-26T05:25:47;15.80;99.90
20658;DHT22;10488;50.846;4.078;2022-10-26T05:28:13;15.80;99.90
20658;DHT22;10488;50.846;4.078;2022-10-26T05:30:40;15.80;99.90
20658;DHT22;10488;50.846;4.078;2022-10-26T05:33:09;15.80;99.90
20658;DHT22;10488;50.846;4.078;2022-10-26T05:35:35;15.70;99.90
20658;DHT22;10488;50.846;4.078;2022-10-26T05:38:13;15.60;99.90
20658;DHT22;10488;50.846;4.078;2022-10-26T05:40:46;15.70;99.90
20658;DHT22;10488;50.846;4.078;2022-10-26T05:43:12;15.80;99.90
20658;DHT22;10488;50.846;4.078;2022-10-26T05:45:38;15.60;99.90
20658;DHT22;10488;50.846;4.078;2022-10-26T05:48:04;15.60;99.90
20658;DHT22;10488;50.846;4.078;2022-10-26T05:50:29;15.60;99.90
20658;DHT22;10488;50.846;4.078;2022-10-26T05:53:21;15.60;99.90
20658;DHT22;10488;50.846;4.078;2022-10-26T05:55:47;15.60;99.90
20658;DHT22;10488;50.846;4.078;2022-10-26T05:58:14;15.50;99.90
20658;DHT22;10488;50.846;4.078;2022-10-26T06:06:16;15.50;99.90
20658;DHT22;10488;50.846;4.078;2022-10-26T06:08:41;15.50;99.90
20658;DHT22;10488;50.846;4.078;2022-10-26T06:11:08;15.60;99.90
20658;DHT22;10488;50.846;4.078;2022-10-26T06:13:34;15.70;99.90
20658;DHT22;10488;50.846;4.078;2022-10-26T06:22:11;15.50;99.90
20658;DHT22;10488;50.846;4.078;2022-10-26T06:30:10;15.50;99.90
20658;DHT22;10488;50.846;4.078;2022-10-26T06:32:42;15.40;99.90
20658;DHT22;10488;50.846;4.078;2022-10-26T06:38:02;15.50;99.90
20658;DHT22;10488;50.846;4.078;2022-10-26T06:40:31;15.60;99.90
20658;DHT22;10488;50.846;4.078;2022-10-26T06:43:00;15.50;99.90
20658;DHT22;10488;50.846;4.078;2022-10-26T06:45:25;15.50;99.90
20658;DHT22;10488;50.846;4.078;2022-10-26T06:48:09;15.40;99.90
20658;DHT22;10488;50.846;4.078;2022-10-26T06:50:44;15.30;99.90
20658;DHT22;10488;50.846;4.078;2022-10-26T06:53:18;15.30;99.90
20658;DHT22;10488;50.846;4.078;2022-10-26T06:55:47;15.30;99.90
20658;DHT22;10488;50.846;4.078;2022-10-26T06:58:19;15.20;99.90
20658;DHT22;10488;50.846;4.078;2022-10-26T07:00:48;15.20;99.90
20658;DHT22;10488;50.846;4.078;2022-10-26T07:03:15;15.10;99.90
20658;DHT22;10488;50.846;4.078;2022-10-26T07:05:42;15.10;99.90
20658;DHT22;10488;50.846;4.078;2022-10-26T07:08:08;15.20;99.90
20658;DHT22;10488;50.846;4.078;2022-10-26T07:10:34;15.20;99.90
20658;DHT22;10488;50.846;4.078;2022-10-26T07:13:06;15.20;99.90
20658;DHT22;10488;50.846;4.078;2022-10-26T07:15:33;15.20;99.90
20658;DHT22;10488;50.846;4.078;2022-10-26T07:17:59;15.30;99.90
20658;DHT22;10488;50.846;4.078;2022-10-26T07:20:24;15.30;99.90
20658;DHT22;10488;50.846;4.078;2022-10-26T07:22:51;15.20;99.90
20658;DHT22;10488;50.846;4.078;2022-10-26T07:25:17;15.20;99.90
20658;DHT22;10488;50.846;4.078;2022-10-26T07:27:43;15.30;99.90
20658;DHT22;10488;50.846;4.078;2022-10-26T07:30:09;15.30;99.90
20658;DHT22;10488;50.846;4.078;2022-10-26T07:32:35;15.40;99.90
20658;DHT22;10488;50.846;4.078;2022-10-26T07:35:01;15.40;99.90
20658;DHT22;10488;50.846;4.078;2022-10-26T07:37:27;15.60;99.90
20658;DHT22;10488;50.846;4.078;2022-10-26T07:39:53;15.60;99.90
20658;DHT22;10488;50.846;4.078;2022-10-26T07:42:18;16.00;99.90
20658;DHT22;10488;50.846;4.078;2022-10-26T07:44:44;16.30;99.90
20658;DHT22;10488;50.846;4.078;2022-10-26T07:47:10;16.60;99.90
20658;DHT22;10488;50.846;4.078;2022-10-26T07:49:35;16.90;99.90
20658;DHT22;10488;50.846;4.078;2022-10-26T07:52:01;17.00;99.90
20658;DHT22;10488;50.846;4.078;2022-10-26T07:54:26;17.10;99.90
20658;DHT22;10488;50.846;4.078;2022-10-26T07:56:52;17.30;99.90
20658;DHT22;10488;50.846;4.078;2022-10-26T07:59:18;17.30;99.90
20658;DHT22;10488;50.846;4.078;2022-10-26T08:01:44;17.00;99.90
20658;DHT22;10488;50.846;4.078;2022-10-26T08:04:10;17.00;99.90
20658;DHT22;10488;50.846;4.078;2022-10-26T08:06:36;17.20;99.90
20658;DHT22;10488;50.846;4.078;2022-10-26T08:09:01;17.10;99.90
20658;DHT22;10488;50.846;4.078;2022-10-26T08:11:27;17.30;99.90
20658;DHT22;10488;50.846;4.078;2022-10-26T08:13:53;17.50;99.90
20658;DHT22;10488;50.846;4.078;2022-10-26T08:16:20;17.80;99.90
20658;DHT22;10488;50.846;4.078;2022-10-26T08:18:50;18.10;99.90
20658;DHT22;10488;50.846;4.078;2022-10-26T08:21:17;18.00;99.90
20658;DHT22;10488;50.846;4.078;2022-10-26T08:23:43;18.00;99.90
20658;DHT22;10488;50.846;4.078;2022-10-26T08:26:09;18.00;99.90
20658;DHT22;10488;50.846;4.078;2022-10-26T08:28:36;18.00;99.90
20658;DHT22;10488;50.846;4.078;2022-10-26T08:31:02;18.10;99.90
20658;DHT22;10488;50.846;4.078;2022-10-26T08:33:28;17.90;99.90
20658;DHT22;10488;50.846;4.078;2022-10-26T08:35:59;17.80;99.90
20658;DHT22;10488;50.846;4.078;2022-10-26T08:38:25;17.80;99.90
20658;DHT22;10488;50.846;4.078;2022-10-26T08:40:51;18.00;99.90
20658;DHT22;10488;50.846;4.078;2022-10-26T08:46:14;17.80;99.90
20658;DHT22;10488;50.846;4.078;2022-10-26T08:49:15;17.90;99.90
20658;DHT22;10488;50.846;4.078;2022-10-26T08:51:43;18.00;99.90
20658;DHT22;10488;50.846;4.078;2022-10-26T08:54:18;17.90;99.90
20658;DHT22;10488;50.846;4.078;2022-10-26T08:56:51;17.80;99.90
20658;DHT22;10488;50.846;4.078;2022-10-26T08:59:43;17.70;99.90
20658;DHT22;10488;50.846;4.078;2022-10-26T09:02:16;17.80;99.90
20658;DHT22;10488;50.846;4.078;2022-10-26T09:04:42;17.90;99.90
20658;DHT22;10488;50.846;4.078;2022-10-26T09:07:26;18.00;99.90
20658;DHT22;10488;50.846;4.078;2022-10-26T09:18:37;18.30;99.90
20658;DHT22;10488;50.846;4.078;2022-10-26T09:24:01;18.60;99.90
20658;DHT22;10488;50.846;4.078;2022-10-26T09:26:53;18.60;99.90
20658;DHT22;10488;50.846;4.078;2022-10-26T09:29:24;18.70;99.90
20658;DHT22;10488;50.846;4.078;2022-10-26T09:31:52;18.80;99.90
20658;DHT22;10488;50.846;4.078;2022-10-26T09:36:57;18.90;99.90
20658;DHT22;10488;50.846;4.078;2022-10-26T09:39:45;18.80;99.90
20658;DHT22;10488;50.846;4.078;2022-10-26T09:42:17;18.80;99.90
20658;DHT22;10488;50.846;4.078;2022-10-26T09:45:14;18.70;99.90
20658;DHT22;10488;50.846;4.078;2022-10-26T09:47:45;18.80;99.90
20658;DHT22;10488;50.846;4.078;2022-10-26T09:50:19;19.00;99.90
20658;DHT22;10488;50.846;4.078;2022-10-26T09:52:46;19.00;99.90
20658;DHT22;10488;50.846;4.078;2022-10-26T09:55:12;19.00;99.90
20658;DHT22;10488;50.846;4.078;2022-10-26T09:57:44;19.00;99.90
20658;DHT22;10488;50.846;4.078;2022-10-26T10:00:15;19.30;99.90
20658;DHT22;10488;50.846;4.078;2022-10-26T10:02:48;19.40;99.90
20658;DHT22;10488;50.846;4.078;2022-10-26T10:07:49;19.60;99.90
20658;DHT22;10488;50.846;4.078;2022-10-26T10:10:16;19.30;99.90
20658;DHT22;10488;50.846;4.078;2022-10-26T10:12:42;19.50;99.90
20658;DHT22;10488;50.846;4.078;2022-10-26T10:15:19;19.40;99.90
20658;DHT22;10488;50.846;4.078;2022-10-26T10:17:50;19.40;99.90
20658;DHT22;10488;50.846;4.078;2022-10-26T10:20:20;19.60;99.90
20658;DHT22;10488;50.846;4.078;2022-10-26T10:22:59;19.50;99.90
20658;DHT22;10488;50.846;4.078;2022-10-26T10:25:36;19.40;99.90
20658;DHT22;10488;50.846;4.078;2022-10-26T10:28:20;19.40;99.90
20658;DHT22;10488;50.846;4.078;2022-10-26T10:30:57;19.20;99.90
20658;DHT22;10488;50.846;4.078;2022-10-26T10:33:39;19.20;99.90
20658;DHT22;10488;50.846;4.078;2022-10-26T10:36:15;19.40;99.90
20658;DHT22;10488;50.846;4.078;2022-10-26T10:38:44;19.30;99.90
20658;DHT22;10488;50.846;4.078;2022-10-26T10:41:20;19.60;99.90
20658;DHT22;10488;50.846;4.078;2022-10-26T10:43:53;19.40;99.90
20658;DHT22;10488;50.846;4.078;2022-10-26T10:46:23;19.40;99.90
20658;DHT22;10488;50.846;4.078;2022-10-26T10:48:59;19.40;99.90
20658;DHT22;10488;50.846;4.078;2022-10-26T10:51:26;19.40;99.90
20658;DHT22;10488;50.846;4.078;2022-10-26T10:53:55;19.30;99.90
20658;DHT22;10488;50.846;4.078;2022-10-26T10:56:45;19.30;99.90
20658;DHT22;10488;50.846;4.078;2022-10-26T10:59:24;19.40;99.90
20658;DHT22;10488;50.846;4.078;2022-10-26T11:08:01;19.00;99.90
20658;DHT22;10488;50.846;4.078;2022-10-26T11:10:32;19.20;99.90
20658;DHT22;10488;50.846;4.078;2022-10-26T11:13:03;19.30;99.90
20658;DHT22;10488;50.846;4.078;2022-10-26T11:15:34;19.20;99.90
20658;DHT22;10488;50.846;4.078;2022-10-26T11:20:34;19.40;99.90
20658;DHT22;10488;50.846;4.078;2022-10-26T11:23:31;19.50;99.90
20658;DHT22;10488;50.846;4.078;2022-10-26T11:28:48;19.50;99.90
20658;DHT22;10488;50.846;4.078;2022-10-26T11:31:22;19.50;99.90
20658;DHT22;10488;50.846;4.078;2022-10-26T11:36:33;19.60;99.90
20658;DHT22;10488;50.846;4.078;2022-10-26T11:39:21;19.60;99.90
20658;DHT22;10488;50.846;4.078;2022-10-26T11:44:42;19.70;99.90
20658;DHT22;10488;50.846;4.078;2022-10-26T11:47:15;19.70;99.90
20658;DHT22;10488;50.846;4.078;2022-10-26T11:49:58;19.70;99.90
20658;DHT22;10488;50.846;4.078;2022-10-26T11:52:35;19.70;99.90
20658;DHT22;10488;50.846;4.078;2022-10-26T11:55:02;19.50;99.90
20658;DHT22;10488;50.846;4.078;2022-10-26T11:57:31;19.70;99.90
20658;DHT22;10488;50.846;4.078;2022-10-26T12:00:02;19.70;99.90
20658;DHT22;10488;50.846;4.078;2022-10-26T12:02:31;19.60;99.90
20658;DHT22;10488;50.846;4.078;2022-10-26T12:05:05;19.80;99.90
20658;DHT22;10488;50.846;4.078;2022-10-26T12:07:35;19.90;99.90
20658;DHT22;10488;50.846;4.078;2022-10-26T12:10:06;20.10;99.90
20658;DHT22;10488;50.846;4.078;2022-10-26T12:12:49;20.20;99.90
20658;DHT22;10488;50.846;4.078;2022-10-26T12:18:06;20.30;99.90
20658;DHT22;10488;50.846;4.078;2022-10-26T12:20:56;20.40;99.90
20658;DHT22;10488;50.846;4.078;2022-10-26T12:23:32;20.50;99.90
20658;DHT22;10488;50.846;4.078;2022-10-26T12:34:00;20.60;99.90
20658;DHT22;10488;50.846;4.078;2022-10-26T12:36:49;20.60;99.90
20658;DHT22;10488;50.846;4.078;2022-10-26T12:39:34;20.50;99.90
20658;DHT22;10488;50.846;4.078;2022-10-26T12:44:33;20.40;99.90
20658;DHT22;10488;50.846;4.078;2022-10-26T12:47:00;20.60;99.90
20658;DHT22;10488;50.846;4.078;2022-10-26T12:50:00;20.90;99.90
20658;DHT22;10488;50.846;4.078;2022-10-26T12:58:02;20.80;99.90
20658;DHT22;10488;50.846;4.078;2022-10-26T13:00:31;21.00;99.90
20658;DHT22;10488;50.846;4.078;2022-10-26T13:03:26;20.70;99.90
20658;DHT22;10488;50.846;4.078;2022-10-26T13:08:23;20.60;99.90
20658;DHT22;10488;50.846;4.078;2022-10-26T13:11:19;20.50;99.90
20658;DHT22;10488;50.846;4.078;2022-10-26T13:13:56;20.50;99.90
20658;DHT22;10488;50.846;4.078;2022-10-26T13:16:25;20.50;99.90
20658;DHT22;10488;50.846;4.078;2022-10-26T13:18:51;20.50;99.90
20658;DHT22;10488;50.846;4.078;2022-10-26T13:21:19;20.50;99.90
20658;DHT22;10488;50.846;4.078;2022-10-26T13:23:58;20.50;99.90
20658;DHT22;10488;50.846;4.078;2022-10-26T13:26:30;20.30;99.90
20658;DHT22;10488;50.846;4.078;2022-10-26T13:28:58;20.40;99.90
20658;DHT22;10488;50.846;4.078;2022-10-26T13:34:15;20.40;99.90
20658;DHT22;10488;50.846;4.078;2022-10-26T13:36:46;20.40;99.90
20658;DHT22;10488;50.846;4.078;2022-10-26T13:39:26;20.40;99.90
20658;DHT22;10488;50.846;4.078;2022-10-26T13:41:54;20.50;99.90
20658;DHT22;10488;50.846;4.078;2022-10-26T13:44:28;20.50;99.90
20658;DHT22;10488;50.846;4.078;2022-10-26T13:47:00;20.50;99.90
20658;DHT22;10488;50.846;4.078;2022-10-26T13:49:34;20.60;99.90
20658;DHT22;10488;50.846;4.078;2022-10-26T13:52:02;20.60;99.90
20658;DHT22;10488;50.846;4.078;2022-10-26T13:54:47;20.60;99.90
20658;DHT22;10488;50.846;4.078;2022-10-26T13:57:21;20.70;99.90
20658;DHT22;10488;50.846;4.078;2022-10-26T13:59:50;20.80;99.90
20658;DHT22;10488;50.846;4.078;2022-10-26T14:02:25;20.90;99.90
20658;DHT22;10488;50.846;4.078;2022-10-26T14:04:52;20.70;99.90
20658;DHT22;10488;50.846;4.078;2022-10-26T14:07:22;20.70;99.90
20658;DHT22;10488;50.846;4.078;2022-10-26T14:09:53;20.70;99.90
20658;DHT22;10488;50.846;4.078;2022-10-26T14:12:19;20.90;99.90
20658;DHT22;10488;50.846;4.078;2022-10-26T14:14:45;20.70;99.90
20658;DHT22;10488;50.846;4.078;2022-10-26T14:17:17;20.60;99.90
20658;DHT22;10488;50.846;4.078;2022-10-26T14:19:44;20.60;99.90
20658;DHT22;10488;50.846;4.078;2022-10-26T14:22:21;20.60;99.90
20658;DHT22;10488;50.846;4.078;2022-10-26T14:24:53;20.70;99.90
20658;DHT22;10488;50.846;4.078;2022-10-26T14:27:25;20.60;99.90
20658;DHT22;10488;50.846;4.078;2022-10-26T14:29:52;20.50;99.90
20658;DHT22;10488;50.846;4.078;2022-10-26T14:32:29;20.40;99.90
20658;DHT22;10488;50.846;4.078;2022-10-26T14:34:56;20.40;99.90
20658;DHT22;10488;50.846;4.078;2022-10-26T14:40:06;20.60;99.90
20658;DHT22;10488;50.846;4.078;2022-10-26T14:42:39;20.70;99.90
20658;DHT22;10488;50.846;4.078;2022-10-26T14:45:24;20.50;99.90
20658;DHT22;10488;50.846;4.078;2022-10-26T14:47:52;20.40;99.90
20658;DHT22;10488;50.846;4.078;2022-10-26T14:50:20;20.40;99.90
20658;DHT22;10488;50.846;4.078;2022-10-26T14:52:53;20.50;99.90
20658;DHT22;10488;50.846;4.078;2022-10-26T14:55:21;20.50;99.90
20658;DHT22;10488;50.846;4.078;2022-10-26T14:57:51;20.50;99.90
20658;DHT22;10488;50.846;4.078;2022-10-26T15:00:22;20.60;99.90
20658;DHT22;10488;50.846;4.078;2022-10-26T15:02:55;20.60;99.90
20658;DHT22;10488;50.846;4.078;2022-10-26T15:05:28;20.60;99.90
20658;DHT22;10488;50.846;4.078;2022-10-26T15:07:54;20.50;99.90
20658;DHT22;10488;50.846;4.078;2022-10-26T15:15:45;20.30;99.90
20658;DHT22;10488;50.846;4.078;2022-10-26T15:20:51;20.20;99.90
20658;DHT22;10488;50.846;4.078;2022-10-26T15:23:19;20.20;99.90
20658;DHT22;10488;50.846;4.078;2022-10-26T15:25:59;20.30;99.90
20658;DHT22;10488;50.846;4.078;2022-10-26T15:31:28;20.30;99.90
20658;DHT22;10488;50.846;4.078;2022-10-26T15:36:22;20.10;99.90
20658;DHT22;10488;50.846;4.078;2022-10-26T15:38:48;19.90;99.90
20658;DHT22;10488;50.846;4.078;2022-10-26T15:43:50;19.80;99.90
20658;DHT22;10488;50.846;4.078;2022-10-26T15:46:18;19.70;99.90
20658;DHT22;10488;50.846;4.078;2022-10-26T15:48:48;19.70;99.90
20658;DHT22;10488;50.846;4.078;2022-10-26T15:51:18;19.80;99.90
20658;DHT22;10488;50.846;4.078;2022-10-26T15:53:44;19.90;99.90
20658;DHT22;10488;50.846;4.078;2022-10-26T15:56:21;19.90;99.90
20658;DHT22;10488;50.846;4.078;2022-10-26T15:58:53;19.90;99.90
20658;DHT22;10488;50.846;4.078;2022-10-26T16:01:26;19.90;99.90
20658;DHT22;10488;50.846;4.078;2022-10-26T16:03:53;19.70;99.90
20658;DHT22;10488;50.846;4.078;2022-10-26T16:06:33;19.60;99.90
20658;DHT22;10488;50.846;4.078;2022-10-26T16:09:01;19.60;99.90
20658;DHT22;10488;50.846;4.078;2022-10-26T16:11:28;19.70;99.90
20658;DHT22;10488;50.846;4.078;2022-10-26T16:13:54;19.70;99.90
20658;DHT22;10488;50.846;4.078;2022-10-26T16:16:20;19.70;99.90
20658;DHT22;10488;50.846;4.078;2022-10-26T16:18:53;19.70;99.90
20658;DHT22;10488;50.846;4.078;2022-10-26T16:21:20;19.80;99.90
20658;DHT22;10488;50.846;4.078;2022-10-26T16:23:48;19.70;99.90
20658;DHT22;10488;50.846;4.078;2022-10-26T16:26:14;19.60;99.90
20658;DHT22;10488;50.846;4.078;2022-10-26T16:28:40;19.60;99.90
20658;DHT22;10488;50.846;4.078;2022-10-26T16:31:09;19.60;99.90
20658;DHT22;10488;50.846;4.078;2022-10-26T16:33:35;19.50;99.90
20658;DHT22;10488;50.846;4.078;2022-10-26T16:36:02;19.40;99.90
20658;DHT22;10488;50.846;4.078;2022-10-26T16:38:29;19.20;99.90
20658;DHT22;10488;50.846;4.078;2022-10-26T16:41:13;19.10;99.90
20658;DHT22;10488;50.846;4.078;2022-10-26T16:43:40;19.00;99.90
20658;DHT22;10488;50.846;4.078;2022-10-26T16:46:14;18.90;99.90
20658;DHT22;10488;50.846;4.078;2022-10-26T16:48:42;18.90;99.90
20658;DHT22;10488;50.846;4.078;2022-10-26T16:51:17;18.90;99.90
20658;DHT22;10488;50.846;4.078;2022-10-26T16:53:44;18.80;99.90
20658;DHT22;10488;50.846;4.078;2022-10-26T16:56:13;18.80;99.90
20658;DHT22;10488;50.846;4.078;2022-10-26T16:58:39;18.80;99.90
20658;DHT22;10488;50.846;4.078;2022-10-26T17:01:06;18.80;99.90
20658;DHT22;10488;50.846;4.078;2022-10-26T17:03:33;18.80;99.90
20658;DHT22;10488;50.846;4.078;2022-10-26T17:06:00;18.70;99.90
20658;DHT22;10488;50.846;4.078;2022-10-26T17:08:27;18.60;99.90
20658;DHT22;10488;50.846;4.078;2022-10-26T17:10:54;18.60;99.90
20658;DHT22;10488;50.846;4.078;2022-10-26T17:13:20;18.50;99.90
20658;DHT22;10488;50.846;4.078;2022-10-26T17:15:46;18.60;99.90
20658;DHT22;10488;50.846;4.078;2022-10-26T17:18:12;18.60;99.90
20658;DHT22;10488;50.846;4.078;2022-10-26T17:20:39;18.70;99.90
20658;DHT22;10488;50.846;4.078;2022-10-26T17:23:05;18.80;99.90
20658;DHT22;10488;50.846;4.078;2022-10-26T17:25:34;18.90;99.90
20658;DHT22;10488;50.846;4.078;2022-10-26T17:28:01;19.00;99.90
20658;DHT22;10488;50.846;4.078;2022-10-26T17:30:27;19.10;99.90
20658;DHT22;10488;50.846;4.078;2022-10-26T17:32:53;19.10;99.90
20658;DHT22;10488;50.846;4.078;2022-10-26T17:35:19;19.10;99.90
20658;DHT22;10488;50.846;4.078;2022-10-26T17:37:44;19.10;99.90
20658;DHT22;10488;50.846;4.078;2022-10-26T17:40:10;19.00;99.90
20658;DHT22;10488;50.846;4.078;2022-10-26T17:42:36;18.90;99.90
20658;DHT22;10488;50.846;4.078;2022-10-26T17:45:02;18.80;99.90
20658;DHT22;10488;50.846;4.078;2022-10-26T17:47:28;18.80;99.90
20658;DHT22;10488;50.846;4.078;2022-10-26T17:49:53;18.60;99.90